Deer Park, Washington
Current Conditions -  °F | °C
As of 10:53 PM on Wednesday 22 Oct 2014 (Local Time) from KDEW Reporting Station
Overcast Overcast  
Wind Chill: 50°   Ceiling: 5500
Heat Index: 50°   Visibility: 10mi
Dew Point: 48°   Wind: 3mph
Humidity: 93%   Direction: 150°SSE
Pressure: 29.76"   Gusts: NA
Location:  47.95°N, 117.48°W
Report Text: KDEW 230553Z AUTO 15003KT 10SM OVC055 10/09 A2976 RMK AO2 RAE05 SLP080 P0000 60032 T01000089 10100 20094 58006
Loading
Personal Weather Stations






























Interactive Weather Map
Tropical Storm Tracking
New forecast layout! Learn more

10-Day Weather Forecast

Advertisements
Track Severe Weather on mobile